createdAt,value
2023-02-28T00:02:38.465Z,509.13761
2023-02-28T00:07:40.092Z,470.49573
2023-02-28T00:12:41.685Z,489.13274
2023-02-28T00:17:43.432Z,498.95495
2023-02-28T00:22:45.134Z,470.49573
2023-02-28T00:27:46.974Z,461.64706
2023-02-28T00:32:48.567Z,393.63504
2023-02-28T00:37:50.163Z,384
2023-02-28T00:42:51.955Z,530.66667
2023-02-28T00:47:53.618Z,457.33333
2023-02-28T00:52:55.528Z,504
2023-02-28T00:57:57.127Z,509.13761
2023-02-28T01:02:58.724Z,484.35088
2023-02-28T01:08:00.362Z,380.87943
2023-02-28T01:13:02.242Z,436.8
2023-02-28T01:18:04.296Z,315.08434
2023-02-28T01:23:05.960Z,371.77778
2023-02-28T01:28:07.599Z,417.84615
2023-02-28T01:33:09.306Z,444.81301
2023-02-28T01:38:21.790Z,457.33333
2023-02-28T01:43:24.587Z,448.91803
2023-02-28T01:48:26.382Z,436.8
2023-02-28T01:53:28.234Z,457.33333
2023-02-28T01:58:29.841Z,429.03937
2023-02-28T02:03:31.460Z,387.16547
2023-02-28T02:08:33.254Z,436.8
2023-02-28T02:13:34.887Z,444.81301
2023-02-28T02:18:36.476Z,403.70149
2023-02-28T02:23:38.157Z,380.87943
2023-02-28T02:28:39.723Z,421.51938
2023-02-28T02:33:41.376Z,396.94118
2023-02-28T02:38:43.030Z,360.21622
2023-02-28T02:43:44.655Z,368.82759
2023-02-28T02:48:46.540Z,360.21622
2023-02-28T02:53:48.218Z,396.94118
2023-02-28T02:58:49.907Z,390.37681
2023-02-28T03:03:51.661Z,377.80282
2023-02-28T03:08:53.293Z,436.8
2023-02-28T03:13:54.930Z,403.70149
2023-02-28T03:18:56.573Z,390.37681
2023-02-28T03:23:58.295Z,384
2023-02-28T03:29:00.157Z,377.80282
2023-02-28T03:34:01.912Z,380.87943
2023-02-28T03:39:03.819Z,410.66667
2023-02-28T03:44:05.434Z,393.63504
2023-02-28T03:49:07.040Z,410.66667
2023-02-28T03:54:08.693Z,421.51938
2023-02-28T03:59:10.319Z,390.37681
2023-02-28T04:04:12.024Z,371.77778
2023-02-28T04:14:14.357Z,312.86228
2023-02-28T04:19:15.992Z,351.94702
2023-02-28T04:24:17.703Z,377.80282
2023-02-28T04:29:19.276Z,429.03937
2023-02-28T04:34:21.080Z,436.8
2023-02-28T04:39:22.697Z,444.81301
2023-02-28T04:44:24.337Z,489.13274
2023-02-28T04:49:26.050Z,475.03448
2023-02-28T04:54:27.663Z,484.35088
2023-02-28T04:59:29.343Z,479.65217
2023-02-28T05:04:31.200Z,457.33333
2023-02-28T05:09:32.855Z,461.64706
2023-02-28T05:14:34.674Z,444.81301
2023-02-28T05:19:36.283Z,444.81301
2023-02-28T05:24:37.972Z,461.64706
2023-02-28T05:29:39.659Z,448.91803
2023-02-28T05:34:41.326Z,432.88889
2023-02-28T05:39:43.016Z,453.09091
2023-02-28T05:44:44.686Z,417.84615
2023-02-28T05:49:46.477Z,403.70149
2023-02-28T05:54:48.206Z,414.22901
2023-02-28T05:59:49.911Z,410.66667
2023-02-28T06:04:51.649Z,396.94118
2023-02-28T06:09:53.264Z,417.84615
2023-02-28T06:14:54.955Z,421.51938
2023-02-28T06:19:56.539Z,421.51938
2023-02-28T06:24:58.170Z,410.66667
2023-02-28T06:29:59.844Z,414.22901
2023-02-28T06:35:01.560Z,407.15789
2023-02-28T06:40:03.202Z,410.66667
2023-02-28T06:45:04.878Z,425.25
2023-02-28T06:50:06.525Z,403.70149
2023-02-28T06:55:08.099Z,387.16547
2023-02-28T07:00:09.793Z,436.8
2023-02-28T07:05:11.458Z,410.66667
2023-02-28T07:10:13.021Z,414.22901
2023-02-28T07:15:14.609Z,436.8
2023-02-28T07:20:16.261Z,425.25
2023-02-28T07:25:17.993Z,421.51938
2023-02-28T07:30:19.552Z,432.88889
2023-02-28T07:35:21.199Z,425.25
2023-02-28T07:40:22.880Z,425.25
2023-02-28T07:45:24.506Z,403.70149
2023-02-28T07:50:27.183Z,387.16547
2023-02-28T07:55:28.910Z,377.80282
2023-02-28T08:00:30.920Z,387.16547
2023-02-28T08:05:32.598Z,393.63504
2023-02-28T08:10:34.265Z,380.87943
2023-02-28T08:15:35.896Z,374.76923
2023-02-28T08:20:37.509Z,390.37681
2023-02-28T08:25:39.118Z,387.16547
2023-02-28T08:30:40.745Z,377.80282
2023-02-28T08:35:42.404Z,368.82759
2023-02-28T08:40:44.068Z,363.04762
2023-02-28T08:45:45.902Z,357.42282
2023-02-28T08:50:55.744Z,384
2023-02-28T08:56:06.869Z,377.80282
2023-02-28T09:01:08.524Z,365.91781
2023-02-28T09:06:10.160Z,387.16547
2023-02-28T09:11:11.733Z,371.77778
2023-02-28T09:16:13.427Z,387.16547
2023-02-28T09:21:15.100Z,371.77778
2023-02-28T09:26:16.728Z,349.26316
2023-02-28T09:31:18.718Z,371.77778
2023-02-28T09:36:20.939Z,374.76923
2023-02-28T09:41:22.656Z,387.16547
2023-02-28T09:46:24.266Z,396.94118
2023-02-28T09:51:25.930Z,390.37681
2023-02-28T09:56:28.037Z,377.80282
2023-02-28T10:01:30.271Z,368.82759
2023-02-28T10:06:32.168Z,368.82759
2023-02-28T10:11:33.817Z,410.66667
2023-02-28T10:16:35.404Z,400.2963
2023-02-28T10:21:37.032Z,380.87943
2023-02-28T10:26:38.740Z,393.63504
2023-02-28T10:31:40.335Z,377.80282
2023-02-28T10:36:42.052Z,365.91781
2023-02-28T10:41:43.697Z,374.76923
2023-02-28T10:46:45.385Z,351.94702
2023-02-28T10:51:47.013Z,363.04762
2023-02-28T10:56:48.718Z,365.91781
2023-02-28T11:01:50.375Z,374.76923
2023-02-28T11:06:52.006Z,387.16547
2023-02-28T11:11:53.621Z,374.76923
2023-02-28T11:16:55.515Z,371.77778
2023-02-28T11:21:57.156Z,341.41935
2023-02-28T11:26:58.835Z,360.21622
2023-02-28T11:32:00.527Z,365.91781
2023-02-28T11:37:02.150Z,360.21622
2023-02-28T11:42:03.865Z,336.35669
2023-02-28T11:47:05.521Z,351.94702
2023-02-28T11:52:07.190Z,357.42282
2023-02-28T11:57:08.951Z,371.77778
2023-02-28T12:02:10.595Z,341.41935
2023-02-28T12:07:12.366Z,354.66667
2023-02-28T12:12:14.111Z,360.21622
2023-02-28T12:17:15.815Z,368.82759
2023-02-28T12:22:17.606Z,357.42282
2023-02-28T12:27:19.330Z,365.91781
2023-02-28T12:32:21.102Z,354.66667
2023-02-28T12:37:22.873Z,365.91781
2023-02-28T12:42:24.603Z,363.04762
2023-02-28T12:47:26.248Z,365.91781
2023-02-28T12:52:27.935Z,349.26316
2023-02-28T12:57:29.765Z,346.61438
2023-02-28T13:02:31.449Z,324.24691
2023-02-28T13:07:33.098Z,308.49704
2023-02-28T13:12:34.687Z,308.49704
2023-02-28T13:17:36.393Z,333.87342
2023-02-28T13:22:38.010Z,357.42282
2023-02-28T13:27:39.610Z,387.16547
2023-02-28T13:32:41.274Z,393.63504
2023-02-28T13:37:42.903Z,351.94702
2023-02-28T13:42:44.525Z,310.66667
2023-02-28T13:47:46.364Z,298.02299
2023-02-28T13:52:48.590Z,298.02299
2023-02-28T13:57:51.387Z,280.61202
2023-02-28T14:02:53.199Z,331.42138
2023-02-28T14:07:54.947Z,346.61438
2023-02-28T14:12:56.553Z,349.26316
2023-02-28T14:17:58.212Z,357.42282
2023-02-28T14:22:59.862Z,354.66667
2023-02-28T14:28:01.477Z,354.66667
2023-02-28T14:33:03.350Z,360.21622
2023-02-28T14:38:04.989Z,371.77778
2023-02-28T14:43:06.620Z,393.63504
2023-02-28T14:48:08.253Z,380.87943
2023-02-28T14:53:09.941Z,333.87342
2023-02-28T14:58:11.603Z,365.91781
2023-02-28T15:03:13.487Z,390.37681
2023-02-28T15:08:15.168Z,354.66667
2023-02-28T15:13:16.784Z,357.42282
2023-02-28T15:18:18.457Z,368.82759
2023-02-28T15:23:20.114Z,387.16547
2023-02-28T15:28:21.718Z,390.37681
2023-02-28T15:33:24.161Z,403.70149
2023-02-28T15:38:25.824Z,429.03937
2023-02-28T15:43:27.441Z,384
2023-02-28T15:48:29.114Z,380.87943
2023-02-28T15:53:30.750Z,400.2963
2023-02-28T15:58:32.410Z,371.77778
2023-02-28T16:03:34.073Z,365.91781
2023-02-28T16:08:35.701Z,380.87943
2023-02-28T16:13:37.307Z,390.37681
2023-02-28T16:18:38.914Z,396.94118
2023-02-28T16:23:40.547Z,396.94118
2023-02-28T16:28:42.421Z,417.84615
2023-02-28T16:33:44.026Z,421.51938
2023-02-28T16:38:45.909Z,421.51938
2023-02-28T16:43:47.514Z,414.22901
2023-02-28T16:48:49.132Z,432.88889
2023-02-28T16:53:50.764Z,448.91803
2023-02-28T16:58:52.437Z,453.09091
2023-02-28T17:03:54.176Z,453.09091
2023-02-28T17:08:56.323Z,440.77419
2023-02-28T17:13:58.081Z,448.91803
2023-02-28T17:18:59.922Z,461.64706
2023-02-28T17:24:01.547Z,470.49573
2023-02-28T17:29:03.184Z,461.64706
2023-02-28T17:34:04.997Z,457.33333
2023-02-28T17:39:06.661Z,457.33333
2023-02-28T17:44:08.311Z,470.49573
2023-02-28T17:49:09.952Z,466.0339
2023-02-28T17:54:11.578Z,470.49573
2023-02-28T17:59:13.244Z,466.0339
2023-02-28T18:04:14.846Z,484.35088
2023-02-28T18:09:16.704Z,461.64706
2023-02-28T18:14:18.314Z,470.49573
2023-02-28T18:19:19.932Z,470.49573
2023-02-28T18:24:21.559Z,470.49573
2023-02-28T18:29:23.496Z,475.03448
2023-02-28T18:34:25.095Z,466.0339
2023-02-28T18:39:26.735Z,0
2023-02-28T18:44:28.356Z,479.65217
2023-02-28T18:49:29.966Z,479.65217
2023-02-28T18:54:31.591Z,484.35088
2023-02-28T18:59:33.214Z,484.35088
2023-02-28T19:04:34.803Z,470.49573
2023-02-28T19:09:36.429Z,0
2023-02-28T19:14:38.060Z,0
2023-02-28T19:19:39.704Z,461.64706
2023-02-28T19:24:41.372Z,0
2023-02-28T19:29:43.047Z,440.77419
2023-02-28T19:34:44.714Z,0
2023-02-28T19:39:46.325Z,453.09091
2023-02-28T19:44:47.945Z,440.77419
2023-02-28T19:49:49.661Z,448.91803
2023-02-28T19:54:51.294Z,0
2023-02-28T19:59:52.927Z,0
2023-02-28T20:04:54.696Z,0
2023-02-28T20:09:56.508Z,0
2023-02-28T20:14:58.171Z,0
2023-02-28T20:19:59.779Z,0
2023-02-28T20:25:01.494Z,0
2023-02-28T20:30:03.088Z,470.49573
2023-02-28T20:35:04.848Z,484.35088
2023-02-28T20:40:06.475Z,466.0339
2023-02-28T20:45:08.098Z,470.49573
2023-02-28T20:50:09.798Z,470.49573
2023-02-28T20:55:11.361Z,494
2023-02-28T21:00:12.978Z,489.13274
2023-02-28T21:05:14.588Z,489.13274
2023-02-28T21:10:16.187Z,484.35088
2023-02-28T21:15:17.873Z,498.95495
2023-02-28T21:20:19.513Z,484.35088
2023-02-28T21:25:21.148Z,475.03448
2023-02-28T21:30:22.764Z,0
2023-02-28T21:35:24.429Z,0
2023-02-28T21:40:26.127Z,0
2023-02-28T21:45:27.790Z,0
2023-02-28T21:50:29.507Z,0
2023-02-28T21:55:31.140Z,0
2023-02-28T22:00:32.775Z,479.65217
2023-02-28T22:05:34.450Z,489.13274
2023-02-28T22:10:36.065Z,484.35088
2023-02-28T22:15:37.721Z,489.13274
2023-02-28T22:20:39.407Z,489.13274
2023-02-28T22:25:40.988Z,479.65217
2023-02-28T22:30:42.598Z,475.03448
2023-02-28T22:35:44.289Z,470.49573
2023-02-28T22:40:45.881Z,494
2023-02-28T22:45:47.622Z,489.13274
2023-02-28T22:50:49.290Z,498.95495
2023-02-28T22:55:50.899Z,514.37037
2023-02-28T23:00:52.521Z,525.13208
2023-02-28T23:05:54.143Z,519.70093
2023-02-28T23:10:55.799Z,514.37037
2023-02-28T23:15:57.612Z,509.13761
2023-02-28T23:20:59.261Z,519.70093
2023-02-28T23:26:00.917Z,530.66667
2023-02-28T23:31:02.542Z,509.13761
2023-02-28T23:36:04.167Z,525.13208
2023-02-28T23:41:05.805Z,494
2023-02-28T23:46:07.470Z,514.37037
2023-02-28T23:51:09.184Z,498.95495
2023-02-28T23:56:10.894Z,498.95495
